Aeroporto :
LOGIN :

Iscrizione | Disclaimer

   EN    FR    IT 

 










Sommario :    VFR   VFR Marginale   IFR   IFR Intensivo   IFR Molto Intensivo
Visibilità : 
Base nubi : 
>= 8 km
>= 3000ft
5 / 8 km
1000 / 3000 ft
1500m / 5 km
500 / 1000 ft
800 / 1500m
200 / 500 ft
< 800m
< 200 ft
Simboli :   Temporali  Nebbia  Neve Forte  Precipitazioni Forti  Vento > 20 kt
SIGMETs :   Varie  Temporali  Ghiacco  Turbolenza  Onda orograficha  Ceneri Vulcaniche






- Altitudine del aeroporto : 2356 ft


LZTT - Poprad Tatry

ULTIMO METAR :
  • 291430Z 26010KT 9999 -RA FEW006 BKN060 11/10 Q1012 NOSIG

METARs OBSOLETI :
  • 291400Z 26010KT 9999 -RA FEW007 BKN056 11/10 Q1012 NOSIG
  • 291330Z 27008KT 9999 -SHRA FEW009 SCT023 BKN053 12/10 Q1012 NOSIG
  • 291300Z VRB06KT 9999 -SHRA FEW008 SCT015 BKN040 12/09 Q1012 NOSIG
  • 291230Z 27011KT 9999 -SHRA FEW008 SCT016 BKN040 14/09 Q1012 NOSIG
  • 291200Z 26009KT 9999 VCSH SCT016 SCT050 14/09 Q1011 NOSIG

TAF TAF LZTT
Valido dal 29 a 12 ore il 30 a 12 ore UTC


291100Z 2912/3012 23005KT 9999 SCT010 BKN020
TEMPO 2912/2919 27017KT SHRA FEW025TCU BKN030
PROB40
TEMPO 2912/2916 VRB13G25KT 5000 TSRA SCT025CB BKN035
BECMG 2923/3001 5000 RA FEW003 OVC020
BECMG 3008/3010 28007KT 9999 NSW SCT015 BKN035
TEMPO 3010/3012 SHRA FEW020TCU BKN025



MetMap, La meteo Aeronautica in un colpo d'occhio ! - Copyright ORBIFLY Dicembre 2007 - Disclaimer

ORBIFLY MET'MAP TEAM :

Programmazione e sviluppo : Alexandra Zaïnal
Concezione : Baudouin d'Aumeries
Aiuto per la programmazione : Marc-Olivier Méhu
Supporto tecnico e logistico : Manuel Goepfert
Aiuto per la traduzione : Arnaldo La Scala

Contatto : metmap@orbifly.com




FONTI E CREDITI :

   NOAA